Madisonville, Missouri
Current Conditions -  °F | °C
As of 7:15 PM on Thursday 18 Dec 2014 (Local Time) from KHAE Reporting Station
Overcast Overcast  
Wind Chill: 32°   Ceiling: 2600
Heat Index: 32°   Visibility: 10mi
Dew Point: 27°   Wind: 0mph
Humidity: 80%   Direction: NA
Pressure: 30.27"   Gusts: NA
Location:  39.5275°N, 91.5489°W
Report Text: KHAE 190115Z AUTO 00000KT 10SM SCT012 BKN026 OVC031 00/M03 A3027 RMK AO2
Loading
Personal Weather Stations






























Interactive Weather Map New forecast layout! Learn more

10-Day Weather Forecast

Advertisements
Track Severe Weather on mobile